sensor_id;sensor_type;location;lat;lon;timestamp;pressure;altitude;pressure_sealevel;temperature;humidity
55032;BME280;40928;51.076;7.950;2023-02-12T00:00:38;99052.03;;;4.49;100.00
55032;BME280;40928;51.076;7.950;2023-02-12T00:03:04;99050.88;;;4.51;100.00
55032;BME280;40928;51.076;7.950;2023-02-12T00:05:30;99044.22;;;4.47;100.00
55032;BME280;40928;51.076;7.950;2023-02-12T00:07:55;99052.72;;;4.51;100.00
55032;BME280;40928;51.076;7.950;2023-02-12T00:10:21;99048.22;;;4.51;100.00
55032;BME280;40928;51.076;7.950;2023-02-12T00:12:47;99048.22;;;4.51;100.00
55032;BME280;40928;51.076;7.950;2023-02-12T00:15:12;99042.25;;;4.49;100.00
55032;BME280;40928;51.076;7.950;2023-02-12T00:17:38;99049.38;;;4.49;100.00
55032;BME280;40928;51.076;7.950;2023-02-12T00:20:04;99047.72;;;4.48;100.00
55032;BME280;40928;51.076;7.950;2023-02-12T00:22:29;99048.81;;;4.45;100.00
55032;BME280;40928;51.076;7.950;2023-02-12T00:24:55;99054.97;;;4.46;100.00
55032;BME280;40928;51.076;7.950;2023-02-12T00:27:21;99050.94;;;4.41;100.00
55032;BME280;40928;51.076;7.950;2023-02-12T00:29:48;99057.59;;;4.46;100.00
55032;BME280;40928;51.076;7.950;2023-02-12T00:32:13;99055.25;;;4.42;100.00
55032;BME280;40928;51.076;7.950;2023-02-12T00:34:45;99054.97;;;4.46;100.00
55032;BME280;40928;51.076;7.950;2023-02-12T00:37:11;99056.22;;;4.41;100.00
55032;BME280;40928;51.076;7.950;2023-02-12T00:39:37;99055.66;;;4.48;100.00
55032;BME280;40928;51.076;7.950;2023-02-12T00:42:03;99054.78;;;4.47;100.00
55032;BME280;40928;51.076;7.950;2023-02-12T00:44:29;99061.75;;;4.48;100.00
55032;BME280;40928;51.076;7.950;2023-02-12T00:46:55;99053.97;;;4.47;100.00
55032;BME280;40928;51.076;7.950;2023-02-12T00:49:21;99057.16;;;4.50;100.00
55032;BME280;40928;51.076;7.950;2023-02-12T00:51:47;99055.34;;;4.51;100.00
55032;BME280;40928;51.076;7.950;2023-02-12T00:54:13;99054.34;;;4.52;100.00
55032;BME280;40928;51.076;7.950;2023-02-12T00:56:40;99057.53;;;4.55;100.00
55032;BME280;40928;51.076;7.950;2023-02-12T00:59:05;99055.59;;;4.57;100.00
55032;BME280;40928;51.076;7.950;2023-02-12T01:01:31;99042.41;;;4.48;100.00
55032;BME280;40928;51.076;7.950;2023-02-12T01:03:56;99059.03;;;4.58;100.00
55032;BME280;40928;51.076;7.950;2023-02-12T01:06:22;99060.03;;;4.57;100.00
55032;BME280;40928;51.076;7.950;2023-02-12T01:08:51;99061.69;;;4.58;100.00
55032;BME280;40928;51.076;7.950;2023-02-12T01:11:17;99056.41;;;4.58;100.00
55032;BME280;40928;51.076;7.950;2023-02-12T01:13:43;99053.06;;;4.56;100.00
55032;BME280;40928;51.076;7.950;2023-02-12T01:16:15;99052.94;;;4.57;100.00
55032;BME280;40928;51.076;7.950;2023-02-12T01:18:42;99047.78;;;4.56;100.00
55032;BME280;40928;51.076;7.950;2023-02-12T01:21:12;99053.06;;;4.56;100.00
55032;BME280;40928;51.076;7.950;2023-02-12T01:23:39;99053.91;;;4.56;100.00
55032;BME280;40928;51.076;7.950;2023-02-12T01:26:05;99050.44;;;4.56;100.00
55032;BME280;40928;51.076;7.950;2023-02-12T01:28:32;99054.91;;;4.55;100.00
55032;BME280;40928;51.076;7.950;2023-02-12T01:30:58;99058.38;;;4.56;100.00
55032;BME280;40928;51.076;7.950;2023-02-12T01:33:23;99051.41;;;4.55;100.00
55032;BME280;40928;51.076;7.950;2023-02-12T01:35:49;99057.53;;;4.55;100.00
55032;BME280;40928;51.076;7.950;2023-02-12T01:38:14;99051.09;;;4.58;100.00
55032;BME280;40928;51.076;7.950;2023-02-12T01:40:39;99053.47;;;4.61;100.00
55032;BME280;40928;51.076;7.950;2023-02-12T01:43:11;99057.25;;;4.59;100.00
55032;BME280;40928;51.076;7.950;2023-02-12T01:45:44;99054.72;;;4.57;100.00
55032;BME280;40928;51.076;7.950;2023-02-12T01:48:12;99051.28;;;4.56;100.00
55032;BME280;40928;51.076;7.950;2023-02-12T01:50:40;99048.06;;;4.53;100.00
55032;BME280;40928;51.076;7.950;2023-02-12T01:53:07;99046.41;;;4.52;100.00
55032;BME280;40928;51.076;7.950;2023-02-12T01:55:33;99048.91;;;4.53;100.00
55032;BME280;40928;51.076;7.950;2023-02-12T01:57:58;99047.94;;;4.54;100.00
55032;BME280;40928;51.076;7.950;2023-02-12T02:00:24;99040.00;;;4.54;100.00
55032;BME280;40928;51.076;7.950;2023-02-12T02:02:56;99044.44;;;4.54;100.00
55032;BME280;40928;51.076;7.950;2023-02-12T02:08:08;99040.00;;;4.54;100.00
55032;BME280;40928;51.076;7.950;2023-02-12T02:10:33;99043.47;;;4.55;100.00
55032;BME280;40928;51.076;7.950;2023-02-12T02:12:59;99030.09;;;4.56;100.00
55032;BME280;40928;51.076;7.950;2023-02-12T02:15:46;99030.41;;;4.53;100.00
55032;BME280;40928;51.076;7.950;2023-02-12T02:18:23;99030.84;;;4.49;100.00
55032;BME280;40928;51.076;7.950;2023-02-12T02:32:41;99027.00;;;4.43;100.00
55032;BME280;40928;51.076;7.950;2023-02-12T02:35:11;99025.34;;;4.42;100.00
55032;BME280;40928;51.076;7.950;2023-02-12T02:40:17;99024.47;;;4.41;100.00
55032;BME280;40928;51.076;7.950;2023-02-12T02:42:55;99023.66;;;4.41;100.00
55032;BME280;40928;51.076;7.950;2023-02-12T02:45:33;99026.00;;;4.44;100.00
55032;BME280;40928;51.076;7.950;2023-02-12T02:50:42;99015.78;;;4.49;100.00
55032;BME280;40928;51.076;7.950;2023-02-12T02:53:14;99013.16;;;4.49;100.00
55032;BME280;40928;51.076;7.950;2023-02-12T02:55:46;99003.72;;;4.47;100.00
55032;BME280;40928;51.076;7.950;2023-02-12T02:58:25;99001.38;;;4.44;100.00
55032;BME280;40928;51.076;7.950;2023-02-12T03:06:33;99006.34;;;4.47;100.00
55032;BME280;40928;51.076;7.950;2023-02-12T03:12:08;99006.50;;;4.45;100.00
55032;BME280;40928;51.076;7.950;2023-02-12T03:14:38;99010.66;;;4.48;100.00
55032;BME280;40928;51.076;7.950;2023-02-12T03:17:17;99012.34;;;4.49;100.00
55032;BME280;40928;51.076;7.950;2023-02-12T03:19:49;99008.16;;;4.46;100.00
55032;BME280;40928;51.076;7.950;2023-02-12T03:22:20;99003.19;;;4.43;100.00
55032;BME280;40928;51.076;7.950;2023-02-12T03:24:50;99009.47;;;4.42;100.00
55032;BME280;40928;51.076;7.950;2023-02-12T03:27:28;99004.31;;;4.40;100.00
55032;BME280;40928;51.076;7.950;2023-02-12T03:29:56;99005.00;;;4.42;100.00
55032;BME280;40928;51.076;7.950;2023-02-12T03:37:32;99023.34;;;4.44;100.00
55032;BME280;40928;51.076;7.950;2023-02-12T03:40:34;99012.09;;;4.42;100.00
55032;BME280;40928;51.076;7.950;2023-02-12T03:48:38;99012.41;;;4.39;100.00
55032;BME280;40928;51.076;7.950;2023-02-12T03:51:16;99020.34;;;4.39;100.00
55032;BME280;40928;51.076;7.950;2023-02-12T03:53:45;99010.72;;;4.38;100.00
55032;BME280;40928;51.076;7.950;2023-02-12T03:56:13;99023.66;;;4.41;100.00
55032;BME280;40928;51.076;7.950;2023-02-12T03:59:09;99018.38;;;4.41;100.00
55032;BME280;40928;51.076;7.950;2023-02-12T04:01:36;99014.19;;;4.38;100.00
55032;BME280;40928;51.076;7.950;2023-02-12T04:04:04;99009.06;;;4.37;100.00
55032;BME280;40928;51.076;7.950;2023-02-12T04:06:30;99018.50;;;4.39;100.00
55032;BME280;40928;51.076;7.950;2023-02-12T04:08:58;99023.97;;;4.38;100.00
55032;BME280;40928;51.076;7.950;2023-02-12T04:14:19;99033.09;;;4.44;100.00
55032;BME280;40928;51.076;7.950;2023-02-12T04:17:07;99034.25;;;4.41;100.00
55032;BME280;40928;51.076;7.950;2023-02-12T04:28:18;99047.03;;;4.46;100.00
55032;BME280;40928;51.076;7.950;2023-02-12T04:31:00;99050.34;;;4.48;100.00
55032;BME280;40928;51.076;7.950;2023-02-12T04:33:36;99051.34;;;4.47;100.00
55032;BME280;40928;51.076;7.950;2023-02-12T04:36:25;99057.91;;;4.42;100.00
55032;BME280;40928;51.076;7.950;2023-02-12T04:38:58;99056.38;;;4.40;100.00
55032;BME280;40928;51.076;7.950;2023-02-12T04:41:24;99060.81;;;4.39;100.00
55032;BME280;40928;51.076;7.950;2023-02-12T04:43:50;99059.03;;;4.40;100.00
55032;BME280;40928;51.076;7.950;2023-02-12T04:46:16;99059.84;;;4.40;100.00
55032;BME280;40928;51.076;7.950;2023-02-12T04:48:54;99057.72;;;4.44;100.00
55032;BME280;40928;51.076;7.950;2023-02-12T04:51:21;99058.88;;;4.41;100.00
55032;BME280;40928;51.076;7.950;2023-02-12T04:53:46;99054.84;;;4.37;100.00
55032;BME280;40928;51.076;7.950;2023-02-12T04:56:12;99061.97;;;4.37;100.00
55032;BME280;40928;51.076;7.950;2023-02-12T04:58:39;99063.47;;;4.39;100.00
55032;BME280;40928;51.076;7.950;2023-02-12T05:01:05;99061.97;;;4.37;100.00
55032;BME280;40928;51.076;7.950;2023-02-12T05:03:30;99058.47;;;4.36;100.00
55032;BME280;40928;51.076;7.950;2023-02-12T05:06:01;99059.50;;;4.35;100.00
55032;BME280;40928;51.076;7.950;2023-02-12T05:08:27;99061.13;;;4.36;100.00
55032;BME280;40928;51.076;7.950;2023-02-12T05:10:52;99065.44;;;4.37;100.00
55032;BME280;40928;51.076;7.950;2023-02-12T05:13:17;99055.84;;;4.36;100.00
55032;BME280;40928;51.076;7.950;2023-02-12T05:15:43;99063.09;;;4.34;100.00
55032;BME280;40928;51.076;7.950;2023-02-12T05:18:08;99060.47;;;4.34;100.00
55032;BME280;40928;51.076;7.950;2023-02-12T05:20:34;99064.09;;;4.33;100.00
55032;BME280;40928;51.076;7.950;2023-02-12T05:22:59;99066.56;;;4.35;100.00
55032;BME280;40928;51.076;7.950;2023-02-12T05:25:25;99064.91;;;4.34;100.00
55032;BME280;40928;51.076;7.950;2023-02-12T05:27:50;99064.91;;;4.34;100.00
55032;BME280;40928;51.076;7.950;2023-02-12T05:30:16;99064.91;;;4.34;100.00
55032;BME280;40928;51.076;7.950;2023-02-12T05:32:41;99063.25;;;4.33;100.00
55032;BME280;40928;51.076;7.950;2023-02-12T05:35:07;99064.78;;;4.35;100.00
55032;BME280;40928;51.076;7.950;2023-02-12T05:37:34;99068.41;;;4.34;100.00
55032;BME280;40928;51.076;7.950;2023-02-12T05:40:02;99073.00;;;4.32;100.00
55032;BME280;40928;51.076;7.950;2023-02-12T05:42:28;99073.97;;;4.31;100.00
55032;BME280;40928;51.076;7.950;2023-02-12T05:44:54;99065.06;;;4.32;100.00
55032;BME280;40928;51.076;7.950;2023-02-12T05:47:20;99070.19;;;4.34;100.00
55032;BME280;40928;51.076;7.950;2023-02-12T05:49:45;99068.25;;;4.36;100.00
55032;BME280;40928;51.076;7.950;2023-02-12T05:52:10;99077.16;;;4.35;100.00
55032;BME280;40928;51.076;7.950;2023-02-12T05:54:36;99075.34;;;4.35;100.00
55032;BME280;40928;51.076;7.950;2023-02-12T05:57:01;99073.81;;;4.33;100.00
55032;BME280;40928;51.076;7.950;2023-02-12T05:59:27;99075.94;;;4.29;100.00
55032;BME280;40928;51.076;7.950;2023-02-12T06:01:52;99082.19;;;4.28;100.00
55032;BME280;40928;51.076;7.950;2023-02-12T06:04:21;99075.94;;;4.29;100.00
55032;BME280;40928;51.076;7.950;2023-02-12T06:06:49;99085.66;;;4.29;100.00
55032;BME280;40928;51.076;7.950;2023-02-12T06:09:14;99080.53;;;4.27;100.00
55032;BME280;40928;51.076;7.950;2023-02-12T06:11:40;99081.50;;;4.26;100.00
55032;BME280;40928;51.076;7.950;2023-02-12T06:14:07;99081.38;;;4.28;100.00
55032;BME280;40928;51.076;7.950;2023-02-12T06:16:33;99082.19;;;4.28;100.00
55032;BME280;40928;51.076;7.950;2023-02-12T06:19:01;99090.94;;;4.29;100.00
55032;BME280;40928;51.076;7.950;2023-02-12T06:21:27;99079.84;;;4.25;100.00
55032;BME280;40928;51.076;7.950;2023-02-12T06:23:52;99091.13;;;4.27;100.00
55032;BME280;40928;51.076;7.950;2023-02-12T06:26:19;99092.94;;;4.26;100.00
55032;BME280;40928;51.076;7.950;2023-02-12T06:28:45;99088.47;;;4.27;100.00
55032;BME280;40928;51.076;7.950;2023-02-12T06:31:21;99087.50;;;4.28;100.00
55032;BME280;40928;51.076;7.950;2023-02-12T06:33:47;99084.03;;;4.28;100.00
55032;BME280;40928;51.076;7.950;2023-02-12T06:36:13;99093.91;;;4.25;100.00
55032;BME280;40928;51.076;7.950;2023-02-12T06:38:39;99096.41;;;4.27;100.00
55032;BME280;40928;51.076;7.950;2023-02-12T06:41:05;99096.56;;;4.25;100.00
55032;BME280;40928;51.076;7.950;2023-02-12T06:43:30;99102.66;;;4.26;100.00
55032;BME280;40928;51.076;7.950;2023-02-12T06:45:59;99106.97;;;4.27;100.00
55032;BME280;40928;51.076;7.950;2023-02-12T06:48:26;99112.44;;;4.25;100.00
55032;BME280;40928;51.076;7.950;2023-02-12T06:50:51;99106.56;;;4.22;100.00
55032;BME280;40928;51.076;7.950;2023-02-12T06:53:17;99114.22;;;4.25;100.00
55032;BME280;40928;51.076;7.950;2023-02-12T06:55:42;99120.66;;;4.22;100.00
55032;BME280;40928;51.076;7.950;2023-02-12T06:58:08;99124.13;;;4.23;100.00
55032;BME280;40928;51.076;7.950;2023-02-12T07:00:33;99123.41;;;4.21;100.00
55032;BME280;40928;51.076;7.950;2023-02-12T07:02:59;99126.75;;;4.23;100.00
55032;BME280;40928;51.076;7.950;2023-02-12T07:05:25;99125.94;;;4.22;100.00
55032;BME280;40928;51.076;7.950;2023-02-12T07:07:50;99131.06;;;4.24;100.00
55032;BME280;40928;51.076;7.950;2023-02-12T07:10:17;99131.75;;;4.26;100.00
55032;BME280;40928;51.076;7.950;2023-02-12T07:12:43;99132.75;;;4.25;100.00
55032;BME280;40928;51.076;7.950;2023-02-12T07:15:09;99134.56;;;4.24;100.00
55032;BME280;40928;51.076;7.950;2023-02-12T07:17:35;99134.69;;;4.23;100.00
55032;BME280;40928;51.076;7.950;2023-02-12T07:20:04;99143.47;;;4.23;100.00
55032;BME280;40928;51.076;7.950;2023-02-12T07:22:29;99135.38;;;4.25;100.00
55032;BME280;40928;51.076;7.950;2023-02-12T07:24:55;99138.88;;;4.25;100.00
55032;BME280;40928;51.076;7.950;2023-02-12T07:27:20;99140.66;;;4.25;100.00
55032;BME280;40928;51.076;7.950;2023-02-12T07:29:46;99137.91;;;4.26;100.00
55032;BME280;40928;51.076;7.950;2023-02-12T07:32:12;99140.53;;;4.26;100.00
55032;BME280;40928;51.076;7.950;2023-02-12T07:34:37;99149.00;;;4.30;100.00
55032;BME280;40928;51.076;7.950;2023-02-12T07:37:02;99151.50;;;4.32;100.00
55032;BME280;40928;51.076;7.950;2023-02-12T07:39:28;99154.03;;;4.33;100.00
55032;BME280;40928;51.076;7.950;2023-02-12T07:41:55;99151.06;;;4.36;100.00
55032;BME280;40928;51.076;7.950;2023-02-12T07:44:21;99153.41;;;4.39;100.00
55032;BME280;40928;51.076;7.950;2023-02-12T07:46:47;99160.38;;;4.40;100.00
55032;BME280;40928;51.076;7.950;2023-02-12T07:49:18;99155.25;;;4.39;100.00
55032;BME280;40928;51.076;7.950;2023-02-12T07:51:44;99160.66;;;4.37;100.00
55032;BME280;40928;51.076;7.950;2023-02-12T07:54:10;99161.50;;;4.38;100.00
55032;BME280;40928;51.076;7.950;2023-02-12T07:56:38;99163.19;;;4.39;100.00
55032;BME280;40928;51.076;7.950;2023-02-12T07:59:09;99166.81;;;4.38;100.00
55032;BME280;40928;51.076;7.950;2023-02-12T08:01:40;99162.03;;;4.41;100.00
55032;BME280;40928;51.076;7.950;2023-02-12T08:04:09;99166.19;;;4.44;100.00
55032;BME280;40928;51.076;7.950;2023-02-12T08:06:37;99172.88;;;4.48;100.00
55032;BME280;40928;51.076;7.950;2023-02-12T08:09:05;99165.78;;;4.49;100.00
55032;BME280;40928;51.076;7.950;2023-02-12T08:11:32;99169.78;;;4.53;100.00
55032;BME280;40928;51.076;7.950;2023-02-12T08:13:58;99167.00;;;4.54;100.00
55032;BME280;40928;51.076;7.950;2023-02-12T08:16:25;99164.72;;;4.60;100.00
55032;BME280;40928;51.076;7.950;2023-02-12T08:18:51;99166.28;;;4.62;100.00
55032;BME280;40928;51.076;7.950;2023-02-12T08:21:22;99168.63;;;4.65;100.00
55032;BME280;40928;51.076;7.950;2023-02-12T08:23:49;99165.13;;;4.65;100.00
55032;BME280;40928;51.076;7.950;2023-02-12T08:26:27;99167.19;;;4.71;100.00
55032;BME280;40928;51.076;7.950;2023-02-12T08:28:55;99176.34;;;4.77;100.00
55032;BME280;40928;51.076;7.950;2023-02-12T08:31:26;99171.59;;;4.80;100.00
55032;BME280;40928;51.076;7.950;2023-02-12T08:33:53;99177.13;;;4.87;100.00
55032;BME280;40928;51.076;7.950;2023-02-12T08:36:22;99173.22;;;4.91;100.00
55032;BME280;40928;51.076;7.950;2023-02-12T08:38:48;99178.22;;;4.94;100.00
55032;BME280;40928;51.076;7.950;2023-02-12T08:41:20;99174.25;;;4.98;100.00
55032;BME280;40928;51.076;7.950;2023-02-12T08:43:45;99179.25;;;5.01;100.00
55032;BME280;40928;51.076;7.950;2023-02-12T08:46:16;99178.00;;;5.06;100.00
55032;BME280;40928;51.076;7.950;2023-02-12T08:48:43;99175.19;;;5.07;100.00
55032;BME280;40928;51.076;7.950;2023-02-12T08:51:15;99174.19;;;5.08;100.00
55032;BME280;40928;51.076;7.950;2023-02-12T08:53:42;99178.06;;;5.14;100.00
55032;BME280;40928;51.076;7.950;2023-02-12T08:56:10;99177.75;;;5.17;100.00
55032;BME280;40928;51.076;7.950;2023-02-12T08:58:37;99175.78;;;5.19;100.00
55032;BME280;40928;51.076;7.950;2023-02-12T09:01:04;99189.44;;;5.24;100.00
55032;BME280;40928;51.076;7.950;2023-02-12T09:03:30;99181.31;;;5.26;100.00
55032;BME280;40928;51.076;7.950;2023-02-12T09:05:55;99180.22;;;5.28;100.00
55032;BME280;40928;51.076;7.950;2023-02-12T09:08:21;99177.56;;;5.28;100.00
55032;BME280;40928;51.076;7.950;2023-02-12T09:10:47;99187.69;;;5.33;100.00
55032;BME280;40928;51.076;7.950;2023-02-12T09:13:14;99191.03;;;5.35;100.00
55032;BME280;40928;51.076;7.950;2023-02-12T09:15:42;99193.50;;;5.37;100.00
55032;BME280;40928;51.076;7.950;2023-02-12T09:18:12;99195.19;;;5.38;100.00
55032;BME280;40928;51.076;7.950;2023-02-12T09:20:41;99199.19;;;5.42;100.00
55032;BME280;40928;51.076;7.950;2023-02-12T09:23:11;99192.59;;;5.46;100.00
55032;BME280;40928;51.076;7.950;2023-02-12T09:25:41;99200.94;;;5.51;100.00
55032;BME280;40928;51.076;7.950;2023-02-12T09:28:18;99198.78;;;5.55;100.00
55032;BME280;40928;51.076;7.950;2023-02-12T09:30:43;99196.16;;;5.55;100.00
55032;BME280;40928;51.076;7.950;2023-02-12T09:33:10;99198.03;;;5.62;100.00
55032;BME280;40928;51.076;7.950;2023-02-12T09:35:38;99191.91;;;5.62;100.00
55032;BME280;40928;51.076;7.950;2023-02-12T09:38:12;99199.69;;;5.63;100.00
55032;BME280;40928;51.076;7.950;2023-02-12T09:43:35;99192.31;;;5.67;100.00
55032;BME280;40928;51.076;7.950;2023-02-12T09:46:18;99192.44;;;5.66;100.00
55032;BME280;40928;51.076;7.950;2023-02-12T09:51:39;99196.06;;;5.64;100.00
55032;BME280;40928;51.076;7.950;2023-02-12T09:54:17;99197.72;;;5.66;100.00
55032;BME280;40928;51.076;7.950;2023-02-12T09:56:47;99201.38;;;5.64;100.00
55032;BME280;40928;51.076;7.950;2023-02-12T09:59:30;99198.72;;;5.64;100.00
55032;BME280;40928;51.076;7.950;2023-02-12T10:02:24;99203.25;;;5.72;100.00
55032;BME280;40928;51.076;7.950;2023-02-12T10:04:59;99195.97;;;5.74;100.00
55032;BME280;40928;51.076;7.950;2023-02-12T10:28:06;99203.84;;;6.02;100.00
55032;BME280;40928;51.076;7.950;2023-02-12T10:30:40;99204.69;;;6.03;100.00
55032;BME280;40928;51.076;7.950;2023-02-12T10:33:44;99210.81;;;6.03;100.00
55032;BME280;40928;51.076;7.950;2023-02-12T10:39:20;99205.50;;;6.03;100.00
55032;BME280;40928;51.076;7.950;2023-02-12T10:42:05;99210.81;;;6.03;100.00
55032;BME280;40928;51.076;7.950;2023-02-12T10:44:37;99205.38;;;6.05;100.00
55032;BME280;40928;51.076;7.950;2023-02-12T10:47:03;99203.53;;;6.05;100.00
55032;BME280;40928;51.076;7.950;2023-02-12T10:49:34;99203.38;;;6.07;100.00
55032;BME280;40928;51.076;7.950;2023-02-12T10:52:11;99202.06;;;6.11;100.00
55032;BME280;40928;51.076;7.950;2023-02-12T10:54:43;99198.44;;;6.12;100.00
55032;BME280;40928;51.076;7.950;2023-02-12T10:57:10;99199.59;;;6.09;100.00
55032;BME280;40928;51.076;7.950;2023-02-12T10:59:38;99196.75;;;6.11;100.00
55032;BME280;40928;51.076;7.950;2023-02-12T11:02:15;99201.56;;;6.07;100.00
55032;BME280;40928;51.076;7.950;2023-02-12T11:04:43;99189.19;;;6.16;100.00
55032;BME280;40928;51.076;7.950;2023-02-12T11:07:11;99202.47;;;6.24;100.00
55032;BME280;40928;51.076;7.950;2023-02-12T11:09:39;99201.88;;;6.31;100.00
55032;BME280;40928;51.076;7.950;2023-02-12T11:14:59;99203.72;;;6.38;100.00
55032;BME280;40928;51.076;7.950;2023-02-12T11:17:32;99196.94;;;6.36;100.00
55032;BME280;40928;51.076;7.950;2023-02-12T11:20:26;99192.28;;;6.38;100.00
55032;BME280;40928;51.076;7.950;2023-02-12T11:23:02;99192.28;;;6.38;100.00
55032;BME280;40928;51.076;7.950;2023-02-12T11:25:32;99184.16;;;6.39;100.00
55032;BME280;40928;51.076;7.950;2023-02-12T11:28:11;99183.84;;;6.43;100.00
55032;BME280;40928;51.076;7.950;2023-02-12T11:33:32;99178.22;;;6.46;100.00
55032;BME280;40928;51.076;7.950;2023-02-12T11:36:14;99168.13;;;6.49;100.00
55032;BME280;40928;51.076;7.950;2023-02-12T11:38:52;99165.59;;;6.48;100.00
55032;BME280;40928;51.076;7.950;2023-02-12T11:41:39;99174.09;;;6.51;100.00
55032;BME280;40928;51.076;7.950;2023-02-12T11:44:24;99170.78;;;6.49;100.00
55032;BME280;40928;51.076;7.950;2023-02-12T11:46:58;99164.78;;;6.47;100.00
55032;BME280;40928;51.076;7.950;2023-02-12T11:50:08;99166.47;;;6.48;100.00
55032;BME280;40928;51.076;7.950;2023-02-12T11:52:48;99168.13;;;6.49;100.00
55032;BME280;40928;51.076;7.950;2023-02-12T11:55:32;99165.59;;;6.48;100.00
55032;BME280;40928;51.076;7.950;2023-02-12T12:03:48;99154.81;;;6.41;100.00
55032;BME280;40928;51.076;7.950;2023-02-12T12:09:13;99167.72;;;6.36;100.00
55032;BME280;40928;51.076;7.950;2023-02-12T12:11:53;99163.53;;;6.25;100.00
55032;BME280;40928;51.076;7.950;2023-02-12T12:15:14;99165.00;;;6.19;100.00
55032;BME280;40928;51.076;7.950;2023-02-12T12:17:44;99158.94;;;6.09;100.00
55032;BME280;40928;51.076;7.950;2023-02-12T12:20:40;99164.41;;;6.07;100.00
55032;BME280;40928;51.076;7.950;2023-02-12T12:23:46;99156.94;;;6.03;100.00
55032;BME280;40928;51.076;7.950;2023-02-12T12:31:32;99142.91;;;6.11;100.00
55032;BME280;40928;51.076;7.950;2023-02-12T12:34:08;99147.03;;;6.13;100.00
55032;BME280;40928;51.076;7.950;2023-02-12T12:40:09;99137.78;;;6.17;100.00
55032;BME280;40928;51.076;7.950;2023-02-12T12:46:06;99125.19;;;6.19;100.00
55032;BME280;40928;51.076;7.950;2023-02-12T12:57:35;99117.91;;;6.21;100.00
55032;BME280;40928;51.076;7.950;2023-02-12T13:08:26;99117.75;;;6.23;100.00
55032;BME280;40928;51.076;7.950;2023-02-12T13:11:03;99105.66;;;6.20;100.00
55032;BME280;40928;51.076;7.950;2023-02-12T13:13:44;99108.28;;;6.20;100.00
55032;BME280;40928;51.076;7.950;2023-02-12T13:24:54;99105.56;;;6.04;100.00
55032;BME280;40928;51.076;7.950;2023-02-12T13:27:36;99100.72;;;5.99;100.00
55032;BME280;40928;51.076;7.950;2023-02-12T13:32:49;99099.78;;;6.08;100.00
55032;BME280;40928;51.076;7.950;2023-02-12T13:35:20;99107.53;;;6.02;100.00
55032;BME280;40928;51.076;7.950;2023-02-12T13:37:59;99103.22;;;6.01;100.00
55032;BME280;40928;51.076;7.950;2023-02-12T13:40:29;99109.34;;;6.01;100.00
55032;BME280;40928;51.076;7.950;2023-02-12T13:43:06;99109.19;;;6.03;100.00
55032;BME280;40928;51.076;7.950;2023-02-12T13:48:55;99090.78;;;6.01;100.00
55032;BME280;40928;51.076;7.950;2023-02-12T13:51:41;99105.25;;;6.07;100.00
55032;BME280;40928;51.076;7.950;2023-02-12T13:57:13;99098.63;;;6.11;100.00
55032;BME280;40928;51.076;7.950;2023-02-12T13:59:58;99097.81;;;6.11;100.00
55032;BME280;40928;51.076;7.950;2023-02-12T14:05:13;99100.59;;;6.09;100.00
55032;BME280;40928;51.076;7.950;2023-02-12T14:07:45;99096.13;;;6.09;100.00
55032;BME280;40928;51.076;7.950;2023-02-12T14:10:39;99096.94;;;6.10;100.00
55032;BME280;40928;51.076;7.950;2023-02-12T14:13:15;99091.66;;;6.10;100.00
55032;BME280;40928;51.076;7.950;2023-02-12T14:15:48;99096.13;;;6.09;100.00
55032;BME280;40928;51.076;7.950;2023-02-12T14:18:35;99104.09;;;6.09;100.00
55032;BME280;40928;51.076;7.950;2023-02-12T14:23:35;99100.28;;;6.12;100.00
55032;BME280;40928;51.076;7.950;2023-02-12T14:26:04;99095.81;;;6.13;100.00
55032;BME280;40928;51.076;7.950;2023-02-12T14:33:52;99097.63;;;6.12;100.00
55032;BME280;40928;51.076;7.950;2023-02-12T14:36:46;99091.50;;;6.12;100.00
55032;BME280;40928;51.076;7.950;2023-02-12T14:41:46;99102.25;;;6.10;100.00
55032;BME280;40928;51.076;7.950;2023-02-12T14:50:17;99099.78;;;6.08;100.00
55032;BME280;40928;51.076;7.950;2023-02-12T14:53:07;99101.59;;;6.08;100.00
55032;BME280;40928;51.076;7.950;2023-02-12T14:55:42;99097.94;;;6.09;100.00
55032;BME280;40928;51.076;7.950;2023-02-12T14:58:19;99096.44;;;6.06;100.00
55032;BME280;40928;51.076;7.950;2023-02-12T15:00:52;99102.91;;;6.04;100.00
55032;BME280;40928;51.076;7.950;2023-02-12T15:03:50;99102.22;;;6.02;100.00
55032;BME280;40928;51.076;7.950;2023-02-12T15:06:23;99096.94;;;6.02;100.00
55032;BME280;40928;51.076;7.950;2023-02-12T15:09:15;99097.44;;;6.05;100.00
55032;BME280;40928;51.076;7.950;2023-02-12T15:14:47;99091.31;;;6.05;100.00
55032;BME280;40928;51.076;7.950;2023-02-12T15:17:25;99093.13;;;6.04;100.00
55032;BME280;40928;51.076;7.950;2023-02-12T15:20:06;99088.81;;;6.03;100.00
55032;BME280;40928;51.076;7.950;2023-02-12T15:22:37;99089.47;;;6.05;100.00
55032;BME280;40928;51.076;7.950;2023-02-12T15:27:51;99086.00;;;6.05;100.00
55032;BME280;40928;51.076;7.950;2023-02-12T15:30:23;99077.22;;;6.04;100.00
55032;BME280;40928;51.076;7.950;2023-02-12T15:32:54;99080.72;;;6.05;100.00
55032;BME280;40928;51.076;7.950;2023-02-12T15:35:25;99069.09;;;6.06;100.00
55032;BME280;40928;51.076;7.950;2023-02-12T15:37:53;99069.94;;;6.06;100.00
55032;BME280;40928;51.076;7.950;2023-02-12T15:40:21;99063.94;;;6.04;100.00
55032;BME280;40928;51.076;7.950;2023-02-12T15:48:13;99064.31;;;6.09;100.00
55032;BME280;40928;51.076;7.950;2023-02-12T15:53:15;99061.66;;;6.09;100.00
55032;BME280;40928;51.076;7.950;2023-02-12T15:55:43;99051.88;;;6.10;100.00
55032;BME280;40928;51.076;7.950;2023-02-12T15:58:39;99046.56;;;6.10;100.00
55032;BME280;40928;51.076;7.950;2023-02-12T16:01:07;99047.22;;;6.12;100.00
55032;BME280;40928;51.076;7.950;2023-02-12T16:03:37;99050.19;;;6.09;100.00
55032;BME280;40928;51.076;7.950;2023-02-12T16:06:12;99055.69;;;6.07;100.00
55032;BME280;40928;51.076;7.950;2023-02-12T16:08:47;99048.88;;;6.05;100.00
55032;BME280;40928;51.076;7.950;2023-02-12T16:11:18;99048.19;;;6.03;100.00
55032;BME280;40928;51.076;7.950;2023-02-12T16:13:48;99051.97;;;6.00;100.00